Time;durP1;ratioP1;P1;durP2;ratioP2;P2;SDS_P1;SDS_P2;PMS_P1;PMS_P2;Temp;Humidity;BMP_temperature;BMP_pressure;BME280_temperature;BME280_humidity;BME280_pressure;Samples;Min_cycle;Max_cycle;Signal;HPM_P1;HPM_P2
2022/09/19 00:01:44;;;;;;;0.82;0.40;;;;;;;8.02;100.00;98778.97;5052026;28;20056;-68
2022/09/19 00:04:14;;;;;;;0.45;0.40;;;;;;;7.88;100.00;98776.06;5050382;28;20107;-69
2022/09/19 00:06:41;;;;;;;0.43;0.22;;;;;;;7.76;100.00;98768.69;5047630;28;20386;-68
2022/09/19 00:09:10;;;;;;;0.63;0.38;;;;;;;7.67;100.00;98782.22;5046800;28;20028;-69
2022/09/19 00:11:38;;;;;;;0.90;0.40;;;;;;;7.48;100.00;98782.75;5050989;28;20086;-69
2022/09/19 00:14:03;;;;;;;1.40;0.32;;;;;;;7.45;100.00;98794.75;5052514;28;20020;-69
2022/09/19 00:16:35;;;;;;;0.47;0.22;;;;;;;7.40;100.00;98799.84;5048784;28;20364;-69
2022/09/19 00:19:04;;;;;;;0.90;0.30;;;;;;;7.33;100.00;98796.19;5047772;28;20504;-69
2022/09/19 00:21:38;;;;;;;0.20;0.20;;;;;;;7.14;100.00;98776.03;5041541;28;20033;-69
2022/09/19 00:26:50;;;;;;;0.85;0.20;;;;;;;7.15;100.00;98801.06;5049388;28;20417;-69
2022/09/19 00:29:17;;;;;;;0.65;0.30;;;;;;;7.06;100.00;98794.94;5048533;28;20096;-68
2022/09/19 00:31:44;;;;;;;0.10;0.10;;;;;;;7.00;100.00;98792.97;5043764;28;20096;-68
2022/09/19 00:34:11;;;;;;;0.57;0.17;;;;;;;6.98;100.00;98795.00;5046374;28;20052;-69
2022/09/19 00:36:38;;;;;;;1.88;0.30;;;;;;;6.94;100.00;98791.84;5041724;28;20116;-69
2022/09/19 00:39:05;;;;;;;0.50;0.10;;;;;;;6.91;100.00;98800.25;5039142;28;20548;-68
2022/09/19 00:41:30;;;;;;;0.88;0.30;;;;;;;6.85;100.00;98809.06;5049241;28;20033;-68
2022/09/19 00:43:59;;;;;;;3.80;0.30;;;;;;;6.74;100.00;98810.31;5049647;28;20020;-69
2022/09/19 00:46:27;;;;;;;0.77;0.10;;;;;;;6.65;100.00;98803.28;5047434;28;20039;-69
2022/09/19 00:49:00;;;;;;;0.65;0.30;;;;;;;6.50;100.00;98780.91;5048495;28;20029;-69
2022/09/19 00:51:37;;;;;;;0.38;0.22;;;;;;;6.51;100.00;98786.09;5044989;28;20029;-69
2022/09/19 00:54:11;;;;;;;1.20;0.52;;;;;;;6.46;100.00;98799.22;5050071;28;20037;-68
2022/09/19 00:56:42;;;;;;;0.13;0.10;;;;;;;6.55;100.00;98810.78;5054615;28;20025;-68
2022/09/19 00:59:09;;;;;;;2.28;0.25;;;;;;;6.61;100.00;98817.28;5046126;28;20367;-68
2022/09/19 01:01:34;;;;;;;0.30;0.10;;;;;;;6.45;100.00;98791.34;5049874;28;20036;-69
2022/09/19 01:04:01;;;;;;;1.25;0.30;;;;;;;6.54;100.00;98814.47;5050312;28;20033;-69
2022/09/19 01:06:48;;;;;;;0.10;0.10;;;;;;;6.43;100.00;98813.00;5054540;28;20151;-69
2022/09/19 01:09:39;;;;;;;0.30;0.10;;;;;;;6.41;100.00;98828.47;5043779;28;20112;-68
2022/09/19 01:12:32;;;;;;;0.40;0.17;;;;;;;6.30;100.00;98837.75;5049962;28;20028;-68
2022/09/19 01:15:10;;;;;;;0.77;0.20;;;;;;;6.18;100.00;98839.16;5051089;28;20083;-69
2022/09/19 01:17:46;;;;;;;0.90;0.10;;;;;;;6.05;100.00;98828.13;5047717;28;20064;-68
2022/09/19 01:20:35;;;;;;;0.20;0.20;;;;;;;5.86;100.00;98822.13;5049464;28;20036;-69
2022/09/19 01:23:20;;;;;;;0.32;0.28;;;;;;;5.90;100.00;98847.63;5052945;28;20074;-69
2022/09/19 01:26:07;;;;;;;2.17;0.10;;;;;;;5.77;100.00;98827.72;5051174;28;20114;-68
2022/09/19 01:28:36;;;;;;;0.17;0.10;;;;;;;5.78;100.00;98846.31;5051715;28;20483;-69
2022/09/19 01:31:19;;;;;;;0.20;0.17;;;;;;;5.81;100.00;98848.66;5049312;28;20039;-69
2022/09/19 01:34:02;;;;;;;0.03;0.03;;;;;;;5.69;100.00;98834.75;5050866;28;20116;-69
2022/09/19 01:36:32;;;;;;;0.85;0.20;;;;;;;5.84;100.00;98853.69;5050439;28;20017;-69
2022/09/19 01:38:59;;;;;;;0.47;0.20;;;;;;;5.87;100.00;98853.34;5051952;28;20123;-69
2022/09/19 01:41:24;;;;;;;1.88;0.40;;;;;;;5.77;100.00;98855.38;5047743;28;20078;-69
2022/09/19 01:43:50;;;;;;;0.63;0.20;;;;;;;5.77;100.00;98847.34;5029681;28;20033;-69
2022/09/19 01:47:03;;;;;;;0.40;0.32;;;;;;;5.82;100.00;98860.25;5036304;28;20382;-69
2022/09/19 01:49:47;;;;;;;0.30;0.22;;;;;;;5.88;100.00;98852.31;5035990;28;20090;-68
2022/09/19 01:52:30;;;;;;;0.45;0.20;;;;;;;5.91;100.00;98857.34;5046477;28;20025;-69
2022/09/19 01:55:02;;;;;;;2.28;0.98;;;;;;;5.91;100.00;98856.50;5063095;22;20462;-72
2022/09/19 01:57:57;;;;;;;0.28;0.20;;;;;;;5.83;100.00;98851.16;5026470;28;20033;-71
2022/09/19 02:00:24;;;;;;;0.40;0.30;;;;;;;5.55;100.00;98818.50;5000111;28;20033;-71
2022/09/19 02:03:22;;;;;;;0.70;0.30;;;;;;;5.85;100.00;98866.09;5033793;28;20025;-71
2022/09/19 02:05:59;;;;;;;1.15;0.43;;;;;;;6.09;100.00;98867.06;5031503;28;20029;-72
2022/09/19 02:08:26;;;;;;;0.30;0.30;;;;;;;6.20;100.00;98865.84;5032974;28;20021;-71
2022/09/19 02:11:00;;;;;;;1.02;0.30;;;;;;;6.09;100.00;98845.59;5033146;28;20527;-71
2022/09/19 02:13:31;;;;;;;0.82;0.40;;;;;;;6.23;100.00;98874.41;5031906;28;20033;-71
2022/09/19 02:16:04;;;;;;;0.93;0.38;;;;;;;6.22;100.00;98861.97;5032777;28;20021;-71
2022/09/19 02:18:38;;;;;;;2.38;0.50;;;;;;;6.25;100.00;98860.78;5030268;28;20033;-71
2022/09/19 02:21:10;;;;;;;0.60;0.45;;;;;;;6.26;100.00;98867.84;5030799;28;20056;-73
2022/09/19 02:23:47;;;;;;;1.40;0.60;;;;;;;6.25;100.00;98861.63;5032295;28;20515;-71
2022/09/19 02:26:16;;;;;;;0.93;0.57;;;;;;;6.38;100.00;98871.00;5023038;28;20095;-72
2022/09/19 02:28:44;;;;;;;2.75;0.70;;;;;;;6.28;100.00;98861.28;5031029;28;20094;-73
2022/09/19 02:31:12;;;;;;;0.95;0.50;;;;;;;6.28;100.00;98855.06;5028572;28;20104;-73
2022/09/19 02:33:39;;;;;;;2.97;0.43;;;;;;;6.33;100.00;98872.34;5032836;28;20036;-73
2022/09/19 02:36:30;;;;;;;0.60;0.50;;;;;;;6.39;100.00;98869.97;5032077;28;20024;-73
2022/09/19 02:39:14;;;;;;;0.40;0.40;;;;;;;6.49;100.00;98873.28;5030621;28;20467;-73
2022/09/19 02:41:56;;;;;;;1.05;0.70;;;;;;;6.52;100.00;98857.66;5034016;28;20445;-73
2022/09/19 02:44:31;;;;;;;0.52;0.43;;;;;;;6.75;100.00;98871.13;5031438;28;20396;-73
2022/09/19 02:47:08;;;;;;;1.80;0.63;;;;;;;6.78;100.00;98876.13;5031343;28;20029;-73
2022/09/19 02:49:38;;;;;;;0.90;0.52;;;;;;;6.83;100.00;98874.78;5028112;28;20037;-73
2022/09/19 02:52:12;;;;;;;0.98;0.47;;;;;;;6.77;100.00;98866.41;5026820;28;20378;-73
2022/09/19 02:54:42;;;;;;;1.88;0.68;;;;;;;6.80;100.00;98851.78;5024574;28;20052;-73
2022/09/19 02:57:13;;;;;;;1.08;0.70;;;;;;;6.73;100.00;98854.34;5029553;28;20375;-73
2022/09/19 02:59:42;;;;;;;0.35;0.35;;;;;;;6.88;100.00;98883.16;5030319;28;20033;-73
2022/09/19 03:02:19;;;;;;;1.10;0.50;;;;;;;6.83;100.00;98869.41;5024915;28;20032;-73
2022/09/19 03:04:52;;;;;;;0.60;0.40;;;;;;;6.83;100.00;98874.78;5027730;28;20495;-73
2022/09/19 03:07:27;;;;;;;1.30;0.60;;;;;;;6.62;100.00;98861.97;5028981;28;20080;-73
2022/09/19 03:10:04;;;;;;;0.70;0.60;;;;;;;6.75;100.00;98881.03;5028938;28;20063;-74
2022/09/19 03:12:37;;;;;;;0.50;0.50;;;;;;;6.73;100.00;98881.25;5027507;28;21044;-73
2022/09/19 03:15:05;;;;;;;2.92;0.80;;;;;;;6.55;100.00;98869.91;5029114;28;20040;-73
2022/09/19 03:17:43;;;;;;;2.38;0.45;;;;;;;6.67;100.00;98895.38;5025175;28;20040;-73
2022/09/19 03:20:11;;;;;;;0.80;0.57;;;;;;;6.70;100.00;98886.13;5031120;28;21275;-73
2022/09/19 03:22:38;;;;;;;2.22;0.75;;;;;;;6.66;100.00;98884.81;5028789;28;20060;-74
2022/09/19 03:25:03;;;;;;;0.95;0.75;;;;;;;6.77;100.00;98887.91;5041721;28;20443;-73
2022/09/19 03:27:29;;;;;;;4.13;0.70;;;;;;;6.78;100.00;98892.28;5027706;28;20064;-73
2022/09/19 03:29:54;;;;;;;1.45;0.80;;;;;;;6.63;100.00;98869.00;5028187;28;20645;-74
2022/09/19 03:32:23;;;;;;;1.90;0.70;;;;;;;6.71;100.00;98874.38;5031028;28;20033;-73
2022/09/19 03:34:48;;;;;;;;;;;;;;;6.95;100.00;98893.03;5028503;28;20076;-73
2022/09/19 03:37:14;;;;;;;2.60;0.70;;;;;;;6.85;100.00;98873.59;5030093;28;20298;-73
2022/09/19 03:39:40;;;;;;;1.15;0.75;;;;;;;7.08;100.00;98899.69;5028209;28;20026;-73
2022/09/19 03:42:06;;;;;;;1.52;0.50;;;;;;;7.00;100.00;98876.34;5031153;28;20071;-73
2022/09/19 03:44:32;;;;;;;1.55;0.32;;;;;;;7.13;100.00;98870.38;5027500;28;20033;-73
2022/09/19 03:46:57;;;;;;;6.47;0.57;;;;;;;7.25;100.00;98868.94;5022907;28;20026;-73
2022/09/19 03:49:22;;;;;;;4.03;0.57;;;;;;;7.15;100.00;98841.44;5026799;28;20025;-73
2022/09/19 03:51:49;;;;;;;2.22;0.40;;;;;;;7.30;100.00;98850.38;5030752;28;20104;-73
2022/09/19 03:54:14;;;;;;;2.67;0.40;;;;;;;7.40;100.00;98858.22;5028234;28;20117;-74
2022/09/19 03:56:39;;;;;;;4.65;0.30;;;;;;;7.48;100.00;98866.22;5028770;28;20477;-75
2022/09/19 03:59:05;;;;;;;2.92;0.30;;;;;;;7.53;100.00;98861.13;5026160;28;22019;-73
2022/09/19 04:01:30;;;;;;;1.75;0.38;;;;;;;7.43;100.00;98857.84;5022175;28;20693;-75
2022/09/19 04:03:55;;;;;;;1.85;0.30;;;;;;;7.45;100.00;98870.09;5028831;28;20032;-76
2022/09/19 04:06:21;;;;;;;4.10;0.60;;;;;;;7.59;100.00;98892.69;5028767;28;20018;-76
2022/09/19 04:08:46;;;;;;;4.32;0.52;;;;;;;7.47;100.00;98869.94;5030362;28;20026;-75
2022/09/19 04:11:12;;;;;;;3.95;0.45;;;;;;;7.67;100.00;98911.47;5030390;28;20032;-75
2022/09/19 04:13:38;;;;;;;0.88;0.30;;;;;;;7.47;100.00;98867.25;5029336;28;20033;-76
2022/09/19 04:16:05;;;;;;;4.75;0.50;;;;;;;7.67;100.00;98887.22;5031361;28;20013;-77
2022/09/19 04:18:32;;;;;;;2.95;0.50;;;;;;;7.39;100.00;98838.53;5028087;28;20128;-75
2022/09/19 04:20:57;;;;;;;2.60;0.30;;;;;;;7.77;100.00;98896.91;5024695;28;20138;-74
2022/09/19 04:23:25;;;;;;;6.93;0.70;;;;;;;7.73;100.00;98882.13;5023643;28;20490;-75
2022/09/19 04:25:50;;;;;;;2.90;0.50;;;;;;;7.87;100.00;98897.50;5021946;28;20036;-74
2022/09/19 04:28:17;;;;;;;2.00;0.60;;;;;;;7.72;100.00;98875.09;5025486;28;20030;-74
2022/09/19 04:30:42;;;;;;;1.30;0.35;;;;;;;7.89;100.00;98907.06;5027820;28;20052;-75
2022/09/19 04:33:10;;;;;;;6.90;0.63;;;;;;;7.38;100.00;98826.09;5021946;28;20434;-75
2022/09/19 04:35:36;;;;;;;4.35;0.50;;;;;;;7.90;100.00;98889.03;5027186;28;20025;-75
2022/09/19 04:38:07;;;;;;;1.40;0.40;;;;;;;8.02;100.00;98909.13;5027298;28;20058;-72
2022/09/19 04:40:40;;;;;;;0.98;0.55;;;;;;;8.06;100.00;98905.03;5030635;28;20406;-72
2022/09/19 04:43:09;;;;;;;6.85;0.57;;;;;;;8.06;100.00;98904.19;5045792;28;20045;-71
2022/09/19 04:45:35;;;;;;;6.22;0.60;;;;;;;8.00;100.00;98895.00;5026354;28;20064;-72
2022/09/19 04:48:04;;;;;;;8.68;0.88;;;;;;;7.99;100.00;98890.66;5036751;28;20025;-77
2022/09/19 04:50:30;;;;;;;1.92;0.50;;;;;;;7.95;100.00;98891.19;5033030;28;20029;-73
2022/09/19 04:52:57;;;;;;;4.30;0.90;;;;;;;7.96;100.00;98888.28;5028485;28;20112;-75
2022/09/19 04:55:25;;;;;;;9.73;1.58;;;;;;;7.96;100.00;98901.75;5029742;28;20053;-75
2022/09/19 04:57:54;;;;;;;4.63;0.80;;;;;;;8.02;100.00;98903.75;5031267;28;20034;-74
2022/09/19 05:00:36;;;;;;;4.05;0.50;;;;;;;7.87;100.00;98875.94;5023659;28;20029;-76
2022/09/19 05:03:06;;;;;;;5.85;0.90;;;;;;;7.95;100.00;98902.81;5030869;28;20083;-75
2022/09/19 05:05:31;;;;;;;;;;;;;;;8.08;100.00;98913.78;5034237;28;20018;-69
2022/09/19 05:07:56;;;;;;;8.20;0.60;;;;;;;7.79;100.00;98886.81;5038194;28;19921;-72
2022/09/19 05:10:22;;;;;;;5.55;0.60;;;;;;;7.95;100.00;98910.88;5029295;28;20155;-72
2022/09/19 05:12:48;;;;;;;2.90;0.60;;;;;;;7.97;100.00;98910.72;5023697;28;20487;-75
2022/09/19 05:15:13;;;;;;;4.35;0.80;;;;;;;7.97;100.00;98911.53;5021257;28;20083;-73
2022/09/19 05:17:38;;;;;;;3.55;1.02;;;;;;;8.00;100.00;98915.72;5027355;28;20033;-70
2022/09/19 05:20:04;;;;;;;5.15;0.90;;;;;;;7.98;100.00;98915.91;5019800;28;20502;-71
2022/09/19 05:22:29;;;;;;;4.93;0.70;;;;;;;8.17;100.00;98946.84;5025652;28;20040;-67
2022/09/19 05:24:55;;;;;;;5.97;1.02;;;;;;;8.20;100.00;98951.91;5028936;28;20117;-71
2022/09/19 05:27:21;;;;;;;5.25;0.68;;;;;;;8.19;100.00;98952.91;5028067;28;20029;-72
2022/09/19 05:29:46;;;;;;;3.70;0.65;;;;;;;8.23;100.00;98948.00;5028107;28;20022;-72
2022/09/19 05:32:11;;;;;;;5.47;0.68;;;;;;;8.15;100.00;98937.28;5022567;28;20104;-73
2022/09/19 05:34:37;;;;;;;4.85;0.60;;;;;;;8.29;100.00;98941.84;5026132;28;20030;-73
2022/09/19 05:37:02;;;;;;;3.70;0.70;;;;;;;8.34;100.00;98956.44;5029134;28;20020;-70
2022/09/19 05:39:27;;;;;;;7.15;1.15;;;;;;;8.13;100.00;98908.66;5024743;28;20471;-69
2022/09/19 05:41:52;;;;;;;13.45;0.95;;;;;;;8.35;100.00;98963.50;5030932;28;20022;-69
2022/09/19 05:44:18;;;;;;;6.97;0.60;;;;;;;8.38;100.00;98961.47;5030076;28;20030;-70
2022/09/19 05:46:44;;;;;;;8.32;0.98;;;;;;;8.43;100.00;98951.81;5033563;28;20025;-68
2022/09/19 05:49:09;;;;;;;8.15;0.80;;;;;;;8.34;100.00;98944.84;5018531;28;20025;-75
2022/09/19 05:51:35;;;;;;;4.72;1.08;;;;;;;8.50;100.00;98944.66;5033813;28;20048;-75
2022/09/19 05:54:00;;;;;;;6.70;0.80;;;;;;;8.63;100.00;98953.97;5028174;28;20030;-75
2022/09/19 05:56:25;;;;;;;2.28;0.63;;;;;;;8.57;100.00;98955.56;5031486;28;20028;-71
2022/09/19 05:58:53;;;;;;;9.35;0.98;;;;;;;8.44;100.00;98947.28;5031580;28;20037;-79
2022/09/19 06:01:20;;;;;;;12.00;1.00;;;;;;;8.51;100.00;98946.38;5031381;28;20025;-79
2022/09/19 06:03:45;;;;;;;6.85;1.00;;;;;;;8.71;100.00;98961.97;5028862;28;20491;-77
2022/09/19 06:06:14;;;;;;;3.45;0.70;;;;;;;8.73;100.00;98941.88;5033041;28;20088;-77
2022/09/19 06:08:42;;;;;;;6.70;0.93;;;;;;;8.69;100.00;98969.41;5030393;28;20025;-71
2022/09/19 06:11:08;;;;;;;5.10;0.80;;;;;;;8.72;100.00;98980.66;5030148;28;20450;-72
2022/09/19 06:16:20;;;;;;;6.47;1.13;;;;;;;8.83;100.00;98982.06;5028222;28;20450;-71
2022/09/19 06:18:46;;;;;;;13.85;1.65;;;;;;;8.86;100.00;98978.97;5032030;28;20513;-70
2022/09/19 06:21:12;;;;;;;15.98;1.48;;;;;;;8.96;100.00;98998.41;5025550;28;20049;-71
2022/09/19 06:23:38;;;;;;;12.32;1.92;;;;;;;8.90;100.00;99004.53;5025610;28;20449;-71
2022/09/19 06:26:04;;;;;;;11.38;0.98;;;;;;;8.85;100.00;98976.44;5027671;28;20034;-72
2022/09/19 06:28:29;;;;;;;4.82;0.98;;;;;;;9.05;100.00;99006.41;5023499;28;20084;-70
2022/09/19 06:30:54;;;;;;;6.43;0.82;;;;;;;8.83;100.00;98973.09;5032612;28;20079;-71
2022/09/19 06:33:20;;;;;;;11.45;0.65;;;;;;;8.98;100.00;99015.22;5032748;28;20550;-71
2022/09/19 06:35:45;;;;;;;6.50;1.17;;;;;;;9.07;100.00;99012.44;5030308;28;20021;-71
2022/09/19 06:38:11;;;;;;;6.25;1.20;;;;;;;9.07;100.00;98999.78;5030636;28;20033;-71
2022/09/19 06:40:38;;;;;;;5.18;1.20;;;;;;;9.13;100.00;99009.00;5031101;28;20498;-72
2022/09/19 06:43:05;;;;;;;1.70;0.65;;;;;;;9.24;100.00;99021.16;5030247;28;20029;-72
2022/09/19 06:45:34;;;;;;;8.60;0.93;;;;;;;9.26;100.00;99013.72;5032177;28;20029;-73
2022/09/19 06:48:00;;;;;;;8.57;0.90;;;;;;;9.31;100.00;99011.28;5028729;28;20021;-72
2022/09/19 06:50:27;;;;;;;11.80;1.10;;;;;;;9.16;100.00;99030.19;5022310;28;20052;-72
2022/09/19 06:52:52;;;;;;;7.47;1.02;;;;;;;9.21;100.00;99031.31;5031428;28;20025;-72
2022/09/19 06:55:17;;;;;;;8.93;3.35;;;;;;;9.17;100.00;99023.78;5027710;28;20041;-75
2022/09/19 06:57:43;;;;;;;7.90;2.17;;;;;;;9.24;100.00;99031.97;5028084;28;20041;-71
2022/09/19 07:00:09;;;;;;;9.55;1.42;;;;;;;9.10;100.00;99009.38;5027866;28;20033;-74
2022/09/19 07:02:34;;;;;;;9.15;1.20;;;;;;;9.21;100.00;99004.31;5032334;28;20059;-74
2022/09/19 07:05:00;;;;;;;9.63;1.20;;;;;;;9.32;100.00;99016.47;5029913;28;20482;-76
2022/09/19 07:07:26;;;;;;;6.00;0.85;;;;;;;9.50;100.00;99037.66;5031787;28;20021;-74
2022/09/19 07:09:51;;;;;;;5.25;0.70;;;;;;;9.48;100.00;99055.09;5025073;28;20495;-71
2022/09/19 07:12:16;;;;;;;6.88;1.10;;;;;;;9.40;100.00;99043.34;5027350;28;20104;-76
2022/09/19 07:14:41;;;;;;;7.28;1.35;;;;;;;9.52;100.00;99018.56;5029320;28;20033;-76
2022/09/19 07:17:07;;;;;;;7.55;0.85;;;;;;;9.58;100.00;99024.03;5030201;28;20027;-76
2022/09/19 07:19:32;;;;;;;8.55;0.90;;;;;;;9.54;100.00;99032.72;5029080;28;20110;-76
2022/09/19 07:21:57;;;;;;;9.45;1.02;;;;;;;9.57;100.00;99043.16;5021677;28;20091;-74
2022/09/19 07:24:24;;;;;;;6.28;1.05;;;;;;;9.43;100.00;99051.09;5026300;28;20033;-73
2022/09/19 07:26:49;;;;;;;4.13;0.85;;;;;;;9.59;100.00;99052.75;5019861;28;20093;-75
2022/09/19 07:29:14;;;;;;;5.40;1.00;;;;;;;9.52;100.00;99026.69;5034709;28;20121;-75
2022/09/19 07:31:40;;;;;;;11.02;1.35;;;;;;;9.79;100.00;99058.34;5029825;28;20118;-74
2022/09/19 07:34:05;;;;;;;4.90;1.55;;;;;;;9.85;100.00;99052.19;5034748;28;20051;-76
2022/09/19 07:36:30;;;;;;;8.50;0.98;;;;;;;10.02;100.00;99066.25;5027450;28;20112;-68
2022/09/19 07:38:55;;;;;;;7.80;1.27;;;;;;;9.97;100.00;99055.19;5030281;28;20044;-77
2022/09/19 07:41:21;;;;;;;8.40;1.13;;;;;;;10.00;100.00;99054.81;5030401;28;20087;-77
2022/09/19 07:43:48;;;;;;;6.72;0.80;;;;;;;9.95;100.00;99083.44;5031175;28;20025;-77
2022/09/19 07:46:15;;;;;;;8.65;0.90;;;;;;;9.96;100.00;99085.13;5031772;28;20091;-77
2022/09/19 07:48:46;;;;;;;5.68;0.98;;;;;;;10.18;100.00;99085.97;5031140;28;20032;-71
2022/09/19 07:51:12;;;;;;;3.42;0.88;;;;;;;10.08;100.00;99076.28;5030147;28;20025;-77
2022/09/19 07:56:10;;;;;;;2.33;1.10;;;;;;;10.30;100.00;99069.06;5043257;28;20037;-73
2022/09/19 07:58:35;;;;;;;6.32;1.10;;;;;;;10.34;100.00;99065.94;5051659;28;20378;-73
2022/09/19 08:01:01;;;;;;;5.53;1.23;;;;;;;10.28;100.00;99063.00;5055933;28;20039;-73
2022/09/19 08:03:26;;;;;;;9.07;1.30;;;;;;;10.43;100.00;99094.53;5040246;28;20021;-73
2022/09/19 08:05:52;;;;;;;7.65;1.10;;;;;;;10.34;100.00;99088.41;5062797;28;20432;-74
2022/09/19 08:08:21;;;;;;;9.05;0.95;;;;;;;10.48;100.00;99105.63;5072890;28;20016;-73
2022/09/19 08:10:46;;;;;;;4.70;0.95;;;;;;;10.49;100.00;99100.00;5073570;28;20028;-73
2022/09/19 08:13:13;;;;;;;6.78;1.00;;;;;;;10.50;100.00;99119.75;5063790;28;22031;-73
2022/09/19 08:15:39;;;;;;;9.52;1.67;;;;;;;10.59;100.00;99113.19;5063068;28;20081;-67
2022/09/19 08:18:10;;;;;;;12.30;2.53;;;;;;;10.58;100.00;99103.38;5064177;28;20474;-71
2022/09/19 08:20:39;;;;;;;13.50;1.67;;;;;;;10.61;100.00;99123.81;5059386;28;20033;-71
2022/09/19 08:23:07;;;;;;;5.90;1.20;;;;;;;10.58;100.00;99125.03;5060295;28;20027;-69
2022/09/19 08:25:35;;;;;;;10.07;1.73;;;;;;;10.60;100.00;99127.56;5063749;28;20037;-69
2022/09/19 08:28:03;;;;;;;5.55;1.00;;;;;;;10.55;100.00;99108.38;5073084;28;20060;-70
2022/09/19 08:30:29;;;;;;;8.68;1.13;;;;;;;10.61;100.00;99127.38;5059763;28;20055;-70
2022/09/19 08:32:56;;;;;;;4.55;0.73;;;;;;;10.57;100.00;99106.31;5075476;28;20044;-71
2022/09/19 08:35:23;;;;;;;5.25;0.95;;;;;;;10.83;100.00;99124.63;5069046;28;20025;-71
2022/09/19 08:37:54;;;;;;;5.50;1.10;;;;;;;11.01;100.00;99132.25;5066796;28;20029;-72
2022/09/19 08:40:46;;;;;;;9.52;1.27;;;;;;;10.68;100.00;99109.28;5066309;28;20028;-73
2022/09/19 08:43:30;;;;;;;7.40;1.23;;;;;;;10.92;100.00;99101.75;5064043;28;20095;-72
2022/09/19 08:46:22;;;;;;;4.60;1.48;;;;;;;11.14;100.00;99140.44;5079000;28;20159;-72
2022/09/19 08:48:47;;;;;;;7.40;1.15;;;;;;;11.17;100.00;99140.88;5064022;28;20025;-72
2022/09/19 08:51:19;;;;;;;35.22;3.33;;;;;;;11.19;100.00;99143.41;5070042;28;20466;-72
2022/09/19 08:53:49;;;;;;;11.40;1.73;;;;;;;11.24;100.00;99150.91;5066600;28;20089;-71
2022/09/19 08:56:16;;;;;;;8.65;1.63;;;;;;;11.15;100.00;99144.81;5072740;28;20024;-70
2022/09/19 08:58:49;;;;;;;4.20;0.85;;;;;;;11.31;100.00;99143.66;5063244;28;20028;-72
2022/09/19 09:01:16;;;;;;;9.02;1.23;;;;;;;11.18;100.00;99117.34;5055401;28;20406;-72
2022/09/19 09:03:51;;;;;;;6.20;1.20;;;;;;;11.12;100.00;99137.09;5072208;28;20062;-73
2022/09/19 09:06:50;;;;;;;5.50;1.08;;;;;;;11.17;100.00;99159.00;5065956;28;20111;-69
2022/09/19 09:09:48;;;;;;;7.00;0.90;;;;;;;11.24;100.00;99159.03;5066279;28;20024;-71
2022/09/19 09:12:40;;;;;;;7.82;1.08;;;;;;;11.31;100.00;99158.03;5065505;28;20063;-69
2022/09/19 09:15:25;;;;;;;8.60;1.50;;;;;;;11.41;100.00;99152.25;5062008;28;20029;-72
2022/09/19 09:18:22;;;;;;;9.88;1.17;;;;;;;11.41;100.00;99160.38;5071860;28;20028;-74
2022/09/19 09:21:03;;;;;;;5.50;1.33;;;;;;;11.55;100.00;99164.84;5069975;28;20036;-70
2022/09/19 09:23:35;;;;;;;3.97;0.85;;;;;;;11.43;100.00;99158.31;5069534;28;20024;-70
2022/09/19 09:26:15;;;;;;;6.75;1.00;;;;;;;11.27;100.00;99147.81;5071877;28;20442;-70
2022/09/19 09:28:56;;;;;;;6.82;1.00;;;;;;;11.48;100.00;99163.97;5059370;28;20032;-69
2022/09/19 09:32:08;;;;;;;7.07;2.70;;;;;;;11.61;100.00;99164.03;5069699;28;20040;-72
2022/09/19 09:34:40;;;;;;;3.60;1.20;;;;;;;11.64;100.00;99138.41;4992329;28;20030;-72
2022/09/19 09:37:19;;;;;;;7.03;1.33;;;;;;;11.70;100.00;99128.63;4992317;28;20443;-72
2022/09/19 09:39:59;;;;;;;8.93;1.15;;;;;;;11.83;100.00;99167.47;5030060;28;20512;-71
2022/09/19 09:42:37;;;;;;;6.88;1.25;;;;;;;11.75;100.00;99150.56;5068555;28;20431;-72
2022/09/19 09:45:15;;;;;;;6.30;0.90;;;;;;;11.66;100.00;99157.16;5074504;28;20438;-72
2022/09/19 09:47:50;;;;;;;3.22;0.95;;;;;;;11.56;100.00;99166.53;5069083;28;20020;-68
2022/09/19 09:50:31;;;;;;;3.38;1.00;;;;;;;11.45;100.00;99172.50;5065769;28;20027;-72
2022/09/19 09:53:09;;;;;;;4.47;0.88;;;;;;;11.55;100.00;99175.69;5068900;28;20073;-70
2022/09/19 09:58:53;;;;;;;3.30;0.98;;;;;;;11.51;100.00;99162.75;5069445;28;20185;-71
2022/09/19 10:04:52;;;;;;;3.55;1.05;;;;;;;11.65;100.00;99171.78;5071399;28;20099;-69
2022/09/19 10:07:32;;;;;;;6.72;1.38;;;;;;;11.67;100.00;99165.09;5061442;28;20111;-70
2022/09/19 10:10:02;;;;;;;3.97;1.10;;;;;;;11.78;100.00;99175.38;5065911;28;20077;-70
2022/09/19 10:12:33;;;;;;;3.75;1.20;;;;;;;11.58;100.00;99169.88;5064853;28;20078;-69
2022/09/19 10:15:03;;;;;;;5.18;1.00;;;;;;;11.96;100.00;99160.47;5065477;28;20106;-69
2022/09/19 10:17:33;;;;;;;5.75;1.10;;;;;;;12.06;100.00;99166.34;5070763;28;20032;-73
2022/09/19 10:20:15;;;;;;;6.10;1.27;;;;;;;12.23;98.49;99164.06;5068502;28;20094;-72
2022/09/19 10:22:41;;;;;;;5.85;1.08;;;;;;;12.43;99.86;99169.56;5067847;28;20028;-75
2022/09/19 10:25:13;;;;;;;5.70;1.10;;;;;;;12.73;97.24;99142.84;5072230;28;20510;-75
2022/09/19 10:27:41;;;;;;;3.97;1.30;;;;;;;13.30;87.54;99160.34;5071725;28;20052;-71
2022/09/19 10:30:21;;;;;;;2.92;1.30;;;;;;;14.15;83.28;99157.53;5086671;28;20044;-72
2022/09/19 10:32:50;;;;;;;4.20;0.88;;;;;;;14.39;79.60;99157.81;5065220;28;20115;-72
2022/09/19 10:35:27;;;;;;;2.88;1.13;;;;;;;14.76;79.31;99152.56;5070887;28;20482;-72
2022/09/19 10:37:54;;;;;;;4.78;0.82;;;;;;;15.04;77.83;99158.38;5073374;28;20044;-70
2022/09/19 10:40:20;;;;;;;4.07;0.98;;;;;;;15.00;76.22;99157.16;5069000;28;20230;-71
2022/09/19 10:42:47;;;;;;;7.03;1.17;;;;;;;14.64;77.72;99144.25;5060029;28;20033;-70
2022/09/19 10:45:19;;;;;;;4.30;1.00;;;;;;;14.49;77.49;99152.72;5061553;28;20029;-69
2022/09/19 10:47:47;;;;;;;5.35;1.00;;;;;;;14.39;80.43;99146.94;5076137;28;20089;-70
2022/09/19 10:50:17;;;;;;;9.73;1.08;;;;;;;14.48;78.67;99153.75;5071769;28;20088;-69
2022/09/19 10:52:44;;;;;;;5.25;0.90;;;;;;;13.80;79.76;99155.19;5068077;28;20071;-69
2022/09/19 10:55:21;;;;;;;4.93;0.90;;;;;;;14.11;78.29;99152.75;5064322;28;20024;-69
2022/09/19 10:57:59;;;;;;;2.33;0.80;;;;;;;14.38;78.87;99153.41;5075440;28;20478;-69
2022/09/19 11:00:29;;;;;;;5.65;0.98;;;;;;;14.37;78.58;99157.19;5060509;28;20029;-69
2022/09/19 11:02:57;;;;;;;7.32;1.10;;;;;;;14.32;80.12;99138.78;5065506;28;20021;-72
2022/09/19 11:05:27;;;;;;;4.13;0.80;;;;;;;14.46;78.33;99159.44;5060472;28;20116;-70
2022/09/19 11:07:56;;;;;;;;;;;;;;;14.57;76.29;99155.22;5058716;28;20103;-70
2022/09/19 11:10:38;;;;;;;4.40;0.95;;;;;;;14.86;75.70;99161.06;5064359;28;19967;-71
2022/09/19 11:13:20;;;;;;;4.68;1.08;;;;;;;14.93;74.94;99158.28;5062172;28;20456;-69
2022/09/19 11:16:12;;;;;;;8.70;1.38;;;;;;;15.36;74.08;99163.75;5061671;28;20531;-71
2022/09/19 11:19:06;;;;;;;4.93;1.27;;;;;;;15.19;72.13;99158.03;5047340;28;20071;-72
2022/09/19 11:21:59;;;;;;;8.10;1.05;;;;;;;14.87;74.27;99152.66;5062131;28;20551;-71
2022/09/19 11:24:59;;;;;;;3.03;0.80;;;;;;;15.09;73.94;99147.66;5063776;28;20078;-70
2022/09/19 11:27:42;;;;;;;3.95;0.73;;;;;;;15.70;72.89;99159.63;5070631;28;20090;-70
2022/09/19 11:30:25;;;;;;;4.43;0.90;;;;;;;15.93;68.74;99158.91;5069380;28;20032;-69
2022/09/19 11:33:11;;;;;;;3.22;0.90;;;;;;;15.38;70.61;99153.44;5064511;28;20028;-70
2022/09/19 11:36:07;;;;;;;8.35;1.20;;;;;;;15.92;69.08;99159.13;5059079;28;20024;-67
2022/09/19 11:38:55;;;;;;;4.13;1.20;;;;;;;16.29;69.08;99142.69;5030437;28;20139;-69
2022/09/19 11:41:42;;;;;;;2.95;0.77;;;;;;;16.81;66.87;99162.91;5065713;28;20020;-70
2022/09/19 11:44:20;;;;;;;3.00;0.98;;;;;;;16.55;66.67;99155.09;5069201;28;20035;-70
2022/09/19 11:47:02;;;;;;;6.57;1.55;;;;;;;16.47;67.77;99152.72;5064034;28;20063;-71
2022/09/19 11:49:56;;;;;;;4.93;1.02;;;;;;;16.05;68.68;99156.22;5062125;28;20021;-71
2022/09/19 11:52:37;;;;;;;5.22;1.23;;;;;;;15.54;69.80;99128.28;5062849;28;20028;-72
2022/09/19 11:55:33;;;;;;;4.50;0.90;;;;;;;15.70;69.44;99153.34;5059729;28;20134;-70
2022/09/19 11:58:22;;;;;;;4.80;0.88;;;;;;;15.90;69.00;99153.06;5063820;28;20177;-71
2022/09/19 12:01:10;;;;;;;4.22;0.95;;;;;;;15.80;70.34;99145.44;5061379;28;20559;-72
2022/09/19 12:04:01;;;;;;;4.28;0.60;;;;;;;15.72;70.41;99146.59;5060067;28;20038;-72
2022/09/19 12:06:58;;;;;;;3.30;0.95;;;;;;;15.65;72.99;99150.41;5062342;28;20020;-71
2022/09/19 12:09:31;;;;;;;4.85;0.75;;;;;;;15.51;77.26;99123.31;4990787;28;20097;-72